sensor_id;sensor_type;location;lat;lon;timestamp;P1;durP1;ratioP1;P2;durP2;ratioP2
14171;SDS011;7165;52.388;4.928;2023-03-26T00:20:27;7.68;;;3.55;;
14171;SDS011;7165;52.388;4.928;2023-03-26T00:22:57;8.82;;;4.13;;
14171;SDS011;7165;52.388;4.928;2023-03-26T00:25:26;10.43;;;4.07;;
14171;SDS011;7165;52.388;4.928;2023-03-26T00:27:53;7.85;;;4.22;;
14171;SDS011;7165;52.388;4.928;2023-03-26T00:30:20;9.32;;;3.95;;
14171;SDS011;7165;52.388;4.928;2023-03-26T00:32:47;7.82;;;3.50;;
14171;SDS011;7165;52.388;4.928;2023-03-26T00:35:13;6.63;;;3.35;;
14171;SDS011;7165;52.388;4.928;2023-03-26T00:37:40;10.77;;;4.47;;
14171;SDS011;7165;52.388;4.928;2023-03-26T00:40:08;7.45;;;4.78;;
14171;SDS011;7165;52.388;4.928;2023-03-26T00:42:37;10.25;;;4.43;;
14171;SDS011;7165;52.388;4.928;2023-03-26T00:45:04;9.55;;;3.55;;
14171;SDS011;7165;52.388;4.928;2023-03-26T00:47:31;11.95;;;4.10;;
14171;SDS011;7165;52.388;4.928;2023-03-26T00:49:58;11.30;;;3.92;;
14171;SDS011;7165;52.388;4.928;2023-03-26T00:52:25;9.52;;;4.45;;
14171;SDS011;7165;52.388;4.928;2023-03-26T00:54:53;8.35;;;3.75;;
14171;SDS011;7165;52.388;4.928;2023-03-26T00:57:20;7.30;;;3.70;;
14171;SDS011;7165;52.388;4.928;2023-03-26T00:59:48;7.78;;;4.18;;
14171;SDS011;7165;52.388;4.928;2023-03-26T01:02:16;9.00;;;4.35;;
14171;SDS011;7165;52.388;4.928;2023-03-26T01:04:45;8.25;;;3.97;;
14171;SDS011;7165;52.388;4.928;2023-03-26T01:07:14;7.80;;;4.07;;
14171;SDS011;7165;52.388;4.928;2023-03-26T01:09:45;9.02;;;3.88;;
14171;SDS011;7165;52.388;4.928;2023-03-26T01:12:16;6.63;;;4.10;;
14171;SDS011;7165;52.388;4.928;2023-03-26T01:14:46;6.30;;;3.55;;
14171;SDS011;7165;52.388;4.928;2023-03-26T01:17:15;5.07;;;3.50;;
14171;SDS011;7165;52.388;4.928;2023-03-26T01:19:44;10.73;;;4.45;;
14171;SDS011;7165;52.388;4.928;2023-03-26T01:22:17;5.45;;;3.33;;
14171;SDS011;7165;52.388;4.928;2023-03-26T01:24:46;4.63;;;3.47;;
14171;SDS011;7165;52.388;4.928;2023-03-26T01:27:22;8.45;;;3.72;;
14171;SDS011;7165;52.388;4.928;2023-03-26T01:30:01;5.60;;;3.10;;
14171;SDS011;7165;52.388;4.928;2023-03-26T01:32:41;8.52;;;3.85;;
14171;SDS011;7165;52.388;4.928;2023-03-26T01:35:19;8.50;;;3.90;;
14171;SDS011;7165;52.388;4.928;2023-03-26T01:37:56;6.20;;;3.78;;
14171;SDS011;7165;52.388;4.928;2023-03-26T01:40:36;10.95;;;5.57;;
14171;SDS011;7165;52.388;4.928;2023-03-26T01:43:11;9.70;;;5.05;;
14171;SDS011;7165;52.388;4.928;2023-03-26T01:45:43;9.00;;;4.10;;
14171;SDS011;7165;52.388;4.928;2023-03-26T01:48:13;8.68;;;3.70;;
14171;SDS011;7165;52.388;4.928;2023-03-26T01:50:40;11.35;;;4.07;;
14171;SDS011;7165;52.388;4.928;2023-03-26T01:53:06;5.22;;;2.85;;
14171;SDS011;7165;52.388;4.928;2023-03-26T01:55:39;8.32;;;3.53;;
14171;SDS011;7165;52.388;4.928;2023-03-26T01:58:15;10.23;;;3.97;;
14171;SDS011;7165;52.388;4.928;2023-03-26T02:00:50;6.57;;;3.70;;
14171;SDS011;7165;52.388;4.928;2023-03-26T02:03:26;5.88;;;2.97;;
14171;SDS011;7165;52.388;4.928;2023-03-26T02:05:56;8.02;;;4.43;;
14171;SDS011;7165;52.388;4.928;2023-03-26T02:08:30;9.20;;;3.38;;
14171;SDS011;7165;52.388;4.928;2023-03-26T02:11:02;5.20;;;3.15;;
14171;SDS011;7165;52.388;4.928;2023-03-26T02:13:34;7.30;;;3.72;;
14171;SDS011;7165;52.388;4.928;2023-03-26T02:16:02;5.90;;;3.50;;
14171;SDS011;7165;52.388;4.928;2023-03-26T02:18:30;5.40;;;3.10;;
14171;SDS011;7165;52.388;4.928;2023-03-26T02:21:04;6.25;;;4.07;;
14171;SDS011;7165;52.388;4.928;2023-03-26T02:23:34;6.63;;;4.05;;
14171;SDS011;7165;52.388;4.928;2023-03-26T02:26:06;7.45;;;4.20;;
14171;SDS011;7165;52.388;4.928;2023-03-26T02:28:33;5.60;;;3.50;;
14171;SDS011;7165;52.388;4.928;2023-03-26T02:31:00;9.18;;;3.95;;
14171;SDS011;7165;52.388;4.928;2023-03-26T02:33:27;7.53;;;4.50;;
14171;SDS011;7165;52.388;4.928;2023-03-26T02:35:54;8.90;;;3.92;;
14171;SDS011;7165;52.388;4.928;2023-03-26T02:38:23;8.38;;;3.92;;
14171;SDS011;7165;52.388;4.928;2023-03-26T02:40:50;6.63;;;3.80;;
14171;SDS011;7165;52.388;4.928;2023-03-26T02:43:19;5.47;;;3.17;;
14171;SDS011;7165;52.388;4.928;2023-03-26T02:45:45;5.85;;;3.63;;
14171;SDS011;7165;52.388;4.928;2023-03-26T02:48:12;5.90;;;3.55;;
14171;SDS011;7165;52.388;4.928;2023-03-26T02:50:39;6.30;;;4.30;;
14171;SDS011;7165;52.388;4.928;2023-03-26T02:53:06;7.90;;;3.90;;
14171;SDS011;7165;52.388;4.928;2023-03-26T02:55:33;5.07;;;3.45;;
14171;SDS011;7165;52.388;4.928;2023-03-26T02:57:59;7.93;;;3.77;;
14171;SDS011;7165;52.388;4.928;2023-03-26T03:00:27;10.50;;;5.07;;
14171;SDS011;7165;52.388;4.928;2023-03-26T03:02:54;10.80;;;5.05;;
14171;SDS011;7165;52.388;4.928;2023-03-26T03:05:22;9.60;;;5.97;;
14171;SDS011;7165;52.388;4.928;2023-03-26T03:07:50;6.75;;;4.45;;
14171;SDS011;7165;52.388;4.928;2023-03-26T03:10:22;10.93;;;5.10;;
14171;SDS011;7165;52.388;4.928;2023-03-26T03:12:49;9.77;;;6.77;;
14171;SDS011;7165;52.388;4.928;2023-03-26T03:15:16;8.45;;;6.22;;
14171;SDS011;7165;52.388;4.928;2023-03-26T03:17:44;8.53;;;6.57;;
14171;SDS011;7165;52.388;4.928;2023-03-26T03:20:11;15.40;;;9.32;;
14171;SDS011;7165;52.388;4.928;2023-03-26T03:22:38;14.97;;;9.70;;
14171;SDS011;7165;52.388;4.928;2023-03-26T03:25:06;18.23;;;10.40;;
14171;SDS011;7165;52.388;4.928;2023-03-26T03:27:38;15.57;;;10.82;;
14171;SDS011;7165;52.388;4.928;2023-03-26T03:30:05;16.67;;;12.37;;
14171;SDS011;7165;52.388;4.928;2023-03-26T03:32:33;20.80;;;15.20;;
14171;SDS011;7165;52.388;4.928;2023-03-26T03:35:01;20.30;;;14.27;;
14171;SDS011;7165;52.388;4.928;2023-03-26T03:37:27;19.57;;;13.90;;
14171;SDS011;7165;52.388;4.928;2023-03-26T03:39:54;18.67;;;15.47;;
14171;SDS011;7165;52.388;4.928;2023-03-26T03:42:21;22.87;;;16.70;;
14171;SDS011;7165;52.388;4.928;2023-03-26T03:44:48;21.45;;;15.88;;
14171;SDS011;7165;52.388;4.928;2023-03-26T03:47:14;20.53;;;15.63;;
14171;SDS011;7165;52.388;4.928;2023-03-26T03:49:41;21.48;;;17.88;;
14171;SDS011;7165;52.388;4.928;2023-03-26T03:52:09;20.90;;;18.38;;
14171;SDS011;7165;52.388;4.928;2023-03-26T03:54:36;20.47;;;17.57;;
14171;SDS011;7165;52.388;4.928;2023-03-26T03:57:03;17.00;;;13.73;;
14171;SDS011;7165;52.388;4.928;2023-03-26T03:59:29;16.17;;;11.10;;
14171;SDS011;7165;52.388;4.928;2023-03-26T04:01:56;13.93;;;11.10;;
14171;SDS011;7165;52.388;4.928;2023-03-26T04:04:22;16.03;;;10.17;;
14171;SDS011;7165;52.388;4.928;2023-03-26T04:06:49;12.23;;;10.27;;
14171;SDS011;7165;52.388;4.928;2023-03-26T04:09:18;17.60;;;9.17;;
14171;SDS011;7165;52.388;4.928;2023-03-26T04:11:45;13.57;;;10.25;;
14171;SDS011;7165;52.388;4.928;2023-03-26T04:14:11;16.77;;;11.50;;
14171;SDS011;7165;52.388;4.928;2023-03-26T04:16:38;12.80;;;11.10;;
14171;SDS011;7165;52.388;4.928;2023-03-26T04:19:05;16.20;;;14.55;;
14171;SDS011;7165;52.388;4.928;2023-03-26T04:21:32;18.33;;;14.48;;
14171;SDS011;7165;52.388;4.928;2023-03-26T04:24:02;18.58;;;14.00;;
14171;SDS011;7165;52.388;4.928;2023-03-26T04:26:30;18.73;;;14.73;;
14171;SDS011;7165;52.388;4.928;2023-03-26T04:28:57;21.67;;;16.00;;
14171;SDS011;7165;52.388;4.928;2023-03-26T04:31:26;27.20;;;17.90;;
14171;SDS011;7165;52.388;4.928;2023-03-26T04:33:54;19.67;;;17.58;;
14171;SDS011;7165;52.388;4.928;2023-03-26T04:36:26;20.08;;;18.00;;
14171;SDS011;7165;52.388;4.928;2023-03-26T04:38:56;25.58;;;20.88;;
14171;SDS011;7165;52.388;4.928;2023-03-26T04:41:26;22.58;;;19.70;;
14171;SDS011;7165;52.388;4.928;2023-03-26T04:43:55;24.88;;;20.42;;
14171;SDS011;7165;52.388;4.928;2023-03-26T04:46:22;21.40;;;19.15;;
14171;SDS011;7165;52.388;4.928;2023-03-26T04:48:49;25.05;;;18.63;;
14171;SDS011;7165;52.388;4.928;2023-03-26T04:51:16;27.50;;;19.98;;
14171;SDS011;7165;52.388;4.928;2023-03-26T04:53:46;21.00;;;18.42;;
14171;SDS011;7165;52.388;4.928;2023-03-26T04:56:20;24.02;;;20.55;;
14171;SDS011;7165;52.388;4.928;2023-03-26T04:58:57;21.50;;;19.30;;
14171;SDS011;7165;52.388;4.928;2023-03-26T05:01:26;26.60;;;22.35;;
14171;SDS011;7165;52.388;4.928;2023-03-26T05:03:54;24.85;;;20.23;;
14171;SDS011;7165;52.388;4.928;2023-03-26T05:06:22;24.42;;;20.08;;
14171;SDS011;7165;52.388;4.928;2023-03-26T05:08:51;26.27;;;21.42;;
14171;SDS011;7165;52.388;4.928;2023-03-26T05:11:18;28.63;;;21.88;;
14171;SDS011;7165;52.388;4.928;2023-03-26T05:13:45;26.65;;;20.20;;
14171;SDS011;7165;52.388;4.928;2023-03-26T05:16:13;23.83;;;20.15;;
14171;SDS011;7165;52.388;4.928;2023-03-26T05:18:39;20.77;;;17.08;;
14171;SDS011;7165;52.388;4.928;2023-03-26T05:21:06;22.88;;;19.98;;
14171;SDS011;7165;52.388;4.928;2023-03-26T05:23:33;25.05;;;19.90;;
14171;SDS011;7165;52.388;4.928;2023-03-26T05:25:59;21.67;;;18.00;;
14171;SDS011;7165;52.388;4.928;2023-03-26T05:28:26;20.10;;;16.48;;
14171;SDS011;7165;52.388;4.928;2023-03-26T05:30:53;19.23;;;16.80;;
14171;SDS011;7165;52.388;4.928;2023-03-26T05:33:21;25.40;;;16.85;;
14171;SDS011;7165;52.388;4.928;2023-03-26T05:35:57;24.27;;;15.90;;
14171;SDS011;7165;52.388;4.928;2023-03-26T05:38:26;18.70;;;15.48;;
14171;SDS011;7165;52.388;4.928;2023-03-26T05:40:56;21.63;;;15.45;;
14171;SDS011;7165;52.388;4.928;2023-03-26T05:43:23;22.75;;;16.45;;
14171;SDS011;7165;52.388;4.928;2023-03-26T05:45:50;23.45;;;16.67;;
14171;SDS011;7165;52.388;4.928;2023-03-26T05:48:16;23.30;;;16.05;;
14171;SDS011;7165;52.388;4.928;2023-03-26T05:50:47;26.80;;;16.58;;
14171;SDS011;7165;52.388;4.928;2023-03-26T05:53:14;21.40;;;15.57;;
14171;SDS011;7165;52.388;4.928;2023-03-26T05:55:42;21.83;;;15.18;;
14171;SDS011;7165;52.388;4.928;2023-03-26T05:58:09;24.02;;;15.15;;
14171;SDS011;7165;52.388;4.928;2023-03-26T06:00:36;23.33;;;13.88;;
14171;SDS011;7165;52.388;4.928;2023-03-26T06:03:03;24.55;;;12.60;;
14171;SDS011;7165;52.388;4.928;2023-03-26T06:05:30;14.15;;;10.32;;
14171;SDS011;7165;52.388;4.928;2023-03-26T06:08:00;17.45;;;11.50;;
14171;SDS011;7165;52.388;4.928;2023-03-26T06:10:27;21.42;;;12.55;;
14171;SDS011;7165;52.388;4.928;2023-03-26T06:12:54;19.02;;;12.30;;
14171;SDS011;7165;52.388;4.928;2023-03-26T06:15:21;17.83;;;11.32;;
14171;SDS011;7165;52.388;4.928;2023-03-26T06:17:47;20.38;;;12.30;;
14171;SDS011;7165;52.388;4.928;2023-03-26T06:20:14;17.73;;;11.48;;
14171;SDS011;7165;52.388;4.928;2023-03-26T06:22:41;18.00;;;11.75;;
14171;SDS011;7165;52.388;4.928;2023-03-26T06:25:09;18.85;;;12.40;;
14171;SDS011;7165;52.388;4.928;2023-03-26T06:27:36;17.10;;;11.38;;
14171;SDS011;7165;52.388;4.928;2023-03-26T06:30:03;16.52;;;10.65;;
14171;SDS011;7165;52.388;4.928;2023-03-26T06:32:30;14.52;;;10.75;;
14171;SDS011;7165;52.388;4.928;2023-03-26T06:34:57;17.25;;;10.52;;
14171;SDS011;7165;52.388;4.928;2023-03-26T06:37:24;18.67;;;10.27;;
14171;SDS011;7165;52.388;4.928;2023-03-26T06:39:50;17.20;;;10.13;;
14171;SDS011;7165;52.388;4.928;2023-03-26T06:42:18;14.93;;;9.73;;
14171;SDS011;7165;52.388;4.928;2023-03-26T06:44:45;14.60;;;9.77;;
14171;SDS011;7165;52.388;4.928;2023-03-26T06:47:12;14.70;;;9.27;;
14171;SDS011;7165;52.388;4.928;2023-03-26T06:49:38;14.57;;;8.98;;
14171;SDS011;7165;52.388;4.928;2023-03-26T06:52:06;15.52;;;8.75;;
14171;SDS011;7165;52.388;4.928;2023-03-26T06:54:32;13.10;;;8.18;;
14171;SDS011;7165;52.388;4.928;2023-03-26T06:56:59;15.82;;;8.95;;
14171;SDS011;7165;52.388;4.928;2023-03-26T06:59:27;13.13;;;8.52;;
14171;SDS011;7165;52.388;4.928;2023-03-26T07:01:54;14.68;;;9.13;;
14171;SDS011;7165;52.388;4.928;2023-03-26T07:04:21;17.55;;;9.38;;
14171;SDS011;7165;52.388;4.928;2023-03-26T07:06:47;12.60;;;8.35;;
14171;SDS011;7165;52.388;4.928;2023-03-26T07:09:14;9.27;;;7.80;;
14171;SDS011;7165;52.388;4.928;2023-03-26T07:11:41;13.30;;;8.55;;
14171;SDS011;7165;52.388;4.928;2023-03-26T07:14:07;11.18;;;7.35;;
14171;SDS011;7165;52.388;4.928;2023-03-26T07:16:35;13.63;;;7.22;;
14171;SDS011;7165;52.388;4.928;2023-03-26T07:19:02;14.75;;;8.35;;
14171;SDS011;7165;52.388;4.928;2023-03-26T07:21:29;14.20;;;7.20;;
14171;SDS011;7165;52.388;4.928;2023-03-26T07:23:56;12.05;;;7.13;;
14171;SDS011;7165;52.388;4.928;2023-03-26T07:26:24;11.02;;;7.40;;
14171;SDS011;7165;52.388;4.928;2023-03-26T07:28:58;19.27;;;7.82;;
14171;SDS011;7165;52.388;4.928;2023-03-26T07:31:31;11.75;;;7.43;;
14171;SDS011;7165;52.388;4.928;2023-03-26T07:34:05;10.10;;;7.47;;
14171;SDS011;7165;52.388;4.928;2023-03-26T07:36:40;14.70;;;7.85;;
14171;SDS011;7165;52.388;4.928;2023-03-26T07:39:13;11.68;;;7.65;;
14171;SDS011;7165;52.388;4.928;2023-03-26T07:41:53;10.50;;;6.43;;
14171;SDS011;7165;52.388;4.928;2023-03-26T07:44:28;12.35;;;6.90;;
14171;SDS011;7165;52.388;4.928;2023-03-26T07:47:06;11.95;;;6.43;;
14171;SDS011;7165;52.388;4.928;2023-03-26T07:49:45;12.18;;;6.80;;
14171;SDS011;7165;52.388;4.928;2023-03-26T07:52:13;10.20;;;6.75;;
14171;SDS011;7165;52.388;4.928;2023-03-26T07:54:40;14.25;;;6.40;;
14171;SDS011;7165;52.388;4.928;2023-03-26T07:57:07;11.00;;;5.95;;
14171;SDS011;7165;52.388;4.928;2023-03-26T07:59:42;9.85;;;4.95;;
14171;SDS011;7165;52.388;4.928;2023-03-26T08:02:22;13.80;;;6.82;;
14171;SDS011;7165;52.388;4.928;2023-03-26T08:05:05;18.73;;;6.70;;
14171;SDS011;7165;52.388;4.928;2023-03-26T08:07:45;16.83;;;7.18;;
14171;SDS011;7165;52.388;4.928;2023-03-26T08:10:21;7.88;;;4.55;;
14171;SDS011;7165;52.388;4.928;2023-03-26T08:12:54;13.95;;;4.78;;
14171;SDS011;7165;52.388;4.928;2023-03-26T08:15:27;14.55;;;5.35;;
14171;SDS011;7165;52.388;4.928;2023-03-26T08:17:58;13.18;;;4.80;;
14171;SDS011;7165;52.388;4.928;2023-03-26T08:20:33;10.75;;;4.80;;
14171;SDS011;7165;52.388;4.928;2023-03-26T08:23:06;16.77;;;4.73;;
14171;SDS011;7165;52.388;4.928;2023-03-26T08:25:40;18.48;;;6.40;;
14171;SDS011;7165;52.388;4.928;2023-03-26T08:28:20;20.88;;;6.15;;
14171;SDS011;7165;52.388;4.928;2023-03-26T08:30:55;14.55;;;4.60;;
14171;SDS011;7165;52.388;4.928;2023-03-26T08:33:22;11.13;;;4.60;;
14171;SDS011;7165;52.388;4.928;2023-03-26T08:35:53;13.80;;;5.13;;
14171;SDS011;7165;52.388;4.928;2023-03-26T08:38:20;14.70;;;4.75;;
14171;SDS011;7165;52.388;4.928;2023-03-26T08:41:07;15.80;;;5.85;;
14171;SDS011;7165;52.388;4.928;2023-03-26T08:43:55;11.77;;;5.00;;
14171;SDS011;7165;52.388;4.928;2023-03-26T08:46:51;15.52;;;4.57;;
14171;SDS011;7165;52.388;4.928;2023-03-26T08:52:56;11.45;;;4.30;;
14171;SDS011;7165;52.388;4.928;2023-03-26T08:55:43;12.93;;;3.92;;
14171;SDS011;7165;52.388;4.928;2023-03-26T09:01:35;19.70;;;5.10;;
14171;SDS011;7165;52.388;4.928;2023-03-26T09:10:26;14.00;;;4.85;;
14171;SDS011;7165;52.388;4.928;2023-03-26T09:13:16;12.60;;;4.32;;
14171;SDS011;7165;52.388;4.928;2023-03-26T09:31:31;9.93;;;3.97;;
14171;SDS011;7165;52.388;4.928;2023-03-26T09:34:24;12.48;;;5.50;;
14171;SDS011;7165;52.388;4.928;2023-03-26T09:36:54;13.20;;;4.47;;
14171;SDS011;7165;52.388;4.928;2023-03-26T09:39:34;17.20;;;6.28;;
14171;SDS011;7165;52.388;4.928;2023-03-26T09:42:08;10.25;;;4.10;;
14171;SDS011;7165;52.388;4.928;2023-03-26T09:44:45;9.10;;;3.63;;
14171;SDS011;7165;52.388;4.928;2023-03-26T09:47:38;16.33;;;4.70;;
14171;SDS011;7165;52.388;4.928;2023-03-26T09:50:24;16.85;;;5.10;;
14171;SDS011;7165;52.388;4.928;2023-03-26T09:53:00;10.48;;;4.95;;
14171;SDS011;7165;52.388;4.928;2023-03-26T09:55:37;11.98;;;4.47;;
14171;SDS011;7165;52.388;4.928;2023-03-26T10:01:23;12.07;;;4.53;;
14171;SDS011;7165;52.388;4.928;2023-03-26T10:03:57;10.93;;;5.47;;
14171;SDS011;7165;52.388;4.928;2023-03-26T10:06:38;15.13;;;5.20;;
14171;SDS011;7165;52.388;4.928;2023-03-26T10:09:18;17.80;;;4.63;;
14171;SDS011;7165;52.388;4.928;2023-03-26T10:14:51;18.55;;;5.40;;
14171;SDS011;7165;52.388;4.928;2023-03-26T10:17:30;15.25;;;5.30;;
14171;SDS011;7165;52.388;4.928;2023-03-26T10:20:16;17.38;;;4.80;;
14171;SDS011;7165;52.388;4.928;2023-03-26T10:22:55;21.10;;;5.45;;
14171;SDS011;7165;52.388;4.928;2023-03-26T10:25:33;14.10;;;5.35;;
14171;SDS011;7165;52.388;4.928;2023-03-26T10:28:25;13.93;;;4.93;;
14171;SDS011;7165;52.388;4.928;2023-03-26T10:31:09;13.43;;;4.47;;
14171;SDS011;7165;52.388;4.928;2023-03-26T10:33:53;12.07;;;4.97;;
14171;SDS011;7165;52.388;4.928;2023-03-26T10:36:30;14.90;;;4.90;;
14171;SDS011;7165;52.388;4.928;2023-03-26T10:39:12;15.35;;;4.55;;
14171;SDS011;7165;52.388;4.928;2023-03-26T10:42:11;12.45;;;3.60;;
14171;SDS011;7165;52.388;4.928;2023-03-26T10:44:53;13.13;;;4.10;;
14171;SDS011;7165;52.388;4.928;2023-03-26T10:47:35;11.63;;;4.78;;
14171;SDS011;7165;52.388;4.928;2023-03-26T10:50:24;13.35;;;4.72;;
14171;SDS011;7165;52.388;4.928;2023-03-26T10:52:58;11.77;;;4.80;;
14171;SDS011;7165;52.388;4.928;2023-03-26T10:55:30;10.23;;;4.25;;
14171;SDS011;7165;52.388;4.928;2023-03-26T10:58:02;11.13;;;4.35;;
14171;SDS011;7165;52.388;4.928;2023-03-26T11:00:36;9.98;;;4.72;;
14171;SDS011;7165;52.388;4.928;2023-03-26T11:03:15;13.07;;;4.25;;
14171;SDS011;7165;52.388;4.928;2023-03-26T11:05:57;14.77;;;5.25;;
14171;SDS011;7165;52.388;4.928;2023-03-26T11:08:32;15.02;;;5.15;;
14171;SDS011;7165;52.388;4.928;2023-03-26T11:11:07;10.90;;;4.18;;
14171;SDS011;7165;52.388;4.928;2023-03-26T11:13:45;14.48;;;4.50;;
14171;SDS011;7165;52.388;4.928;2023-03-26T11:16:20;13.50;;;4.20;;
14171;SDS011;7165;52.388;4.928;2023-03-26T11:18:55;8.77;;;4.45;;
14171;SDS011;7165;52.388;4.928;2023-03-26T11:21:25;13.48;;;4.63;;
14171;SDS011;7165;52.388;4.928;2023-03-26T11:24:02;13.85;;;4.10;;
14171;SDS011;7165;52.388;4.928;2023-03-26T11:26:49;13.63;;;4.35;;
14171;SDS011;7165;52.388;4.928;2023-03-26T11:29:26;14.40;;;5.15;;
14171;SDS011;7165;52.388;4.928;2023-03-26T11:32:04;16.60;;;4.38;;
14171;SDS011;7165;52.388;4.928;2023-03-26T11:34:39;11.52;;;3.88;;
14171;SDS011;7165;52.388;4.928;2023-03-26T11:37:11;11.55;;;5.47;;
14171;SDS011;7165;52.388;4.928;2023-03-26T11:39:44;11.52;;;5.38;;
14171;SDS011;7165;52.388;4.928;2023-03-26T11:42:16;10.68;;;3.50;;
14171;SDS011;7165;52.388;4.928;2023-03-26T11:44:47;13.10;;;4.53;;
14171;SDS011;7165;52.388;4.928;2023-03-26T11:47:19;9.88;;;3.50;;
14171;SDS011;7165;52.388;4.928;2023-03-26T11:49:51;10.25;;;3.88;;
14171;SDS011;7165;52.388;4.928;2023-03-26T11:52:20;7.57;;;3.63;;
14171;SDS011;7165;52.388;4.928;2023-03-26T11:54:47;8.63;;;3.80;;
14171;SDS011;7165;52.388;4.928;2023-03-26T11:57:16;8.73;;;3.58;;
14171;SDS011;7165;52.388;4.928;2023-03-26T11:59:49;12.23;;;4.28;;
14171;SDS011;7165;52.388;4.928;2023-03-26T12:02:23;12.90;;;4.13;;
14171;SDS011;7165;52.388;4.928;2023-03-26T12:05:06;9.25;;;3.63;;
14171;SDS011;7165;52.388;4.928;2023-03-26T12:07:41;9.10;;;3.70;;
14171;SDS011;7165;52.388;4.928;2023-03-26T12:10:19;10.07;;;4.03;;
14171;SDS011;7165;52.388;4.928;2023-03-26T12:12:47;7.53;;;3.38;;
14171;SDS011;7165;52.388;4.928;2023-03-26T12:20:30;10.38;;;3.95;;
14171;SDS011;7165;52.388;4.928;2023-03-26T12:23:00;9.13;;;3.60;;
14171;SDS011;7165;52.388;4.928;2023-03-26T12:25:29;8.02;;;3.42;;
14171;SDS011;7165;52.388;4.928;2023-03-26T12:27:57;8.95;;;3.38;;
14171;SDS011;7165;52.388;4.928;2023-03-26T12:30:27;9.73;;;3.45;;
14171;SDS011;7165;52.388;4.928;2023-03-26T12:32:56;5.97;;;3.20;;
14171;SDS011;7165;52.388;4.928;2023-03-26T12:35:28;8.57;;;3.70;;
14171;SDS011;7165;52.388;4.928;2023-03-26T12:38:18;8.15;;;3.03;;
14171;SDS011;7165;52.388;4.928;2023-03-26T12:40:48;10.13;;;4.00;;
14171;SDS011;7165;52.388;4.928;2023-03-26T12:43:29;10.05;;;3.67;;
14171;SDS011;7165;52.388;4.928;2023-03-26T12:46:01;9.13;;;3.65;;
14171;SDS011;7165;52.388;4.928;2023-03-26T12:48:28;7.20;;;3.30;;
14171;SDS011;7165;52.388;4.928;2023-03-26T12:51:00;7.90;;;4.18;;
14171;SDS011;7165;52.388;4.928;2023-03-26T12:53:39;4.25;;;2.30;;
14171;SDS011;7165;52.388;4.928;2023-03-26T12:56:16;7.25;;;3.17;;
14171;SDS011;7165;52.388;4.928;2023-03-26T12:58:54;8.20;;;3.55;;
14171;SDS011;7165;52.388;4.928;2023-03-26T13:01:39;10.20;;;3.45;;
14171;SDS011;7165;52.388;4.928;2023-03-26T13:04:31;8.98;;;2.90;;
14171;SDS011;7165;52.388;4.928;2023-03-26T13:07:11;6.63;;;2.70;;
14171;SDS011;7165;52.388;4.928;2023-03-26T13:09:50;6.35;;;2.92;;
14171;SDS011;7165;52.388;4.928;2023-03-26T13:12:40;7.25;;;2.78;;
14171;SDS011;7165;52.388;4.928;2023-03-26T13:15:17;7.07;;;2.85;;
14171;SDS011;7165;52.388;4.928;2023-03-26T13:17:51;7.43;;;3.15;;
14171;SDS011;7165;52.388;4.928;2023-03-26T13:23:02;11.90;;;3.53;;
14171;SDS011;7165;52.388;4.928;2023-03-26T13:25:36;5.45;;;2.83;;
14171;SDS011;7165;52.388;4.928;2023-03-26T13:28:14;9.80;;;3.78;;
14171;SDS011;7165;52.388;4.928;2023-03-26T13:30:51;5.80;;;2.78;;
14171;SDS011;7165;52.388;4.928;2023-03-26T13:33:31;6.43;;;2.53;;
14171;SDS011;7165;52.388;4.928;2023-03-26T13:36:06;3.75;;;2.83;;
14171;SDS011;7165;52.388;4.928;2023-03-26T13:38:41;8.73;;;3.03;;
14171;SDS011;7165;52.388;4.928;2023-03-26T13:41:20;6.38;;;2.70;;
14171;SDS011;7165;52.388;4.928;2023-03-26T13:44:02;8.55;;;3.38;;
14171;SDS011;7165;52.388;4.928;2023-03-26T13:46:35;8.43;;;3.22;;
14171;SDS011;7165;52.388;4.928;2023-03-26T13:49:08;4.97;;;2.55;;
14171;SDS011;7165;52.388;4.928;2023-03-26T13:51:39;11.95;;;2.95;;
14171;SDS011;7165;52.388;4.928;2023-03-26T13:54:13;6.35;;;3.47;;
14171;SDS011;7165;52.388;4.928;2023-03-26T14:01:42;7.78;;;3.00;;
14171;SDS011;7165;52.388;4.928;2023-03-26T14:04:24;8.25;;;2.85;;
14171;SDS011;7165;52.388;4.928;2023-03-26T14:06:57;3.72;;;2.70;;
14171;SDS011;7165;52.388;4.928;2023-03-26T14:09:29;4.55;;;2.38;;
14171;SDS011;7165;52.388;4.928;2023-03-26T14:12:02;5.82;;;2.67;;
14171;SDS011;7165;52.388;4.928;2023-03-26T14:15:04;5.32;;;2.97;;
14171;SDS011;7165;52.388;4.928;2023-03-26T14:17:36;6.43;;;2.95;;
14171;SDS011;7165;52.388;4.928;2023-03-26T14:26:39;9.10;;;3.47;;
14171;SDS011;7165;52.388;4.928;2023-03-26T14:29:29;8.32;;;3.88;;
14171;SDS011;7165;52.388;4.928;2023-03-26T14:32:09;9.95;;;3.72;;
14171;SDS011;7165;52.388;4.928;2023-03-26T14:34:50;9.25;;;3.42;;
14171;SDS011;7165;52.388;4.928;2023-03-26T14:40:26;8.30;;;2.92;;
14171;SDS011;7165;52.388;4.928;2023-03-26T14:43:00;10.63;;;3.95;;
14171;SDS011;7165;52.388;4.928;2023-03-26T14:45:44;7.38;;;2.88;;
14171;SDS011;7165;52.388;4.928;2023-03-26T15:15:33;6.10;;;3.17;;
14171;SDS011;7165;52.388;4.928;2023-03-26T15:21:41;6.90;;;2.72;;
14171;SDS011;7165;52.388;4.928;2023-03-26T15:24:38;5.63;;;3.08;;
14171;SDS011;7165;52.388;4.928;2023-03-26T15:27:36;7.28;;;3.10;;
14171;SDS011;7165;52.388;4.928;2023-03-26T15:30:24;8.32;;;3.70;;
14171;SDS011;7165;52.388;4.928;2023-03-26T15:59:31;4.93;;;2.40;;
14171;SDS011;7165;52.388;4.928;2023-03-26T16:02:08;5.85;;;2.60;;
14171;SDS011;7165;52.388;4.928;2023-03-26T16:04:49;5.53;;;2.95;;
14171;SDS011;7165;52.388;4.928;2023-03-26T18:16:37;8.33;;;3.77;;
14171;SDS011;7165;52.388;4.928;2023-03-26T18:19:08;7.63;;;3.78;;
14171;SDS011;7165;52.388;4.928;2023-03-26T18:21:42;8.27;;;3.97;;
14171;SDS011;7165;52.388;4.928;2023-03-26T18:24:13;8.23;;;3.47;;
14171;SDS011;7165;52.388;4.928;2023-03-26T18:26:44;10.70;;;4.03;;
14171;SDS011;7165;52.388;4.928;2023-03-26T18:29:19;10.37;;;3.20;;
14171;SDS011;7165;52.388;4.928;2023-03-26T18:31:48;8.73;;;3.73;;
14171;SDS011;7165;52.388;4.928;2023-03-26T18:34:19;11.37;;;4.10;;
14171;SDS011;7165;52.388;4.928;2023-03-26T18:36:47;8.20;;;3.40;;
14171;SDS011;7165;52.388;4.928;2023-03-26T18:39:25;8.57;;;3.93;;
14171;SDS011;7165;52.388;4.928;2023-03-26T18:41:53;13.47;;;3.70;;
14171;SDS011;7165;52.388;4.928;2023-03-26T18:44:20;7.70;;;3.37;;
14171;SDS011;7165;52.388;4.928;2023-03-26T18:46:47;8.70;;;3.43;;
14171;SDS011;7165;52.388;4.928;2023-03-26T18:49:17;5.47;;;3.20;;
14171;SDS011;7165;52.388;4.928;2023-03-26T18:51:45;3.93;;;2.60;;
14171;SDS011;7165;52.388;4.928;2023-03-26T18:54:13;6.47;;;3.20;;
14171;SDS011;7165;52.388;4.928;2023-03-26T18:56:45;7.67;;;3.20;;
14171;SDS011;7165;52.388;4.928;2023-03-26T19:01:52;9.00;;;3.40;;
14171;SDS011;7165;52.388;4.928;2023-03-26T19:04:22;4.57;;;2.73;;
14171;SDS011;7165;52.388;4.928;2023-03-26T19:06:49;9.00;;;3.23;;
14171;SDS011;7165;52.388;4.928;2023-03-26T19:16:42;8.40;;;3.40;;
14171;SDS011;7165;52.388;4.928;2023-03-26T20:18:32;8.33;;;3.73;;
14171;SDS011;7165;52.388;4.928;2023-03-26T20:21:00;6.07;;;3.60;;
14171;SDS011;7165;52.388;4.928;2023-03-26T23:08:58;5.67;;;4.00;;
14171;SDS011;7165;52.388;4.928;2023-03-26T23:11:25;4.00;;;3.07;;
